Lester, Pennsylvania
Current Conditions -  °F | °C
As of 5:54 PM on Tuesday 25 Nov 2014 (Local Time) from KPHL Reporting Station
Broken Clouds Broken Clouds  
Wind Chill: 51°   Ceiling: 25000
Heat Index: 51°   Visibility: 10mi
Dew Point: 30°   Wind: 8mph
Humidity: 44%   Direction: 230°SW
Pressure: 30.08"   Gusts: NA
Location:  39.867°N, 75.284°W
Report Text: KPHL 252254Z 23007KT 10SM SCT200 BKN250 11/M01 A3008 RMK AO2 SLP185 T01061011 $
Loading
Personal Weather Stations






























Interactive Weather Map New forecast layout! Learn more

10-Day Weather Forecast

Advertisements
Track Severe Weather on mobile